createdAt,value
2023-03-29T00:03:49.374Z,99765.59
2023-03-29T00:09:50.903Z,99770.86
2023-03-29T00:15:55.886Z,99765.13
2023-03-29T00:21:57.604Z,99764.69
2023-03-29T00:27:59.126Z,99765.63
2023-03-29T00:34:00.737Z,99774.55
2023-03-29T00:40:10.061Z,99778.85
2023-03-29T00:46:11.570Z,99776.96
2023-03-29T00:52:15.400Z,99777.48
2023-03-29T00:58:21.122Z,99770.90
2023-03-29T01:04:53.307Z,99767.90
2023-03-29T01:11:19.861Z,99762.01
2023-03-29T01:17:24.668Z,99759.25
2023-03-29T01:23:53.967Z,99755.39
2023-03-29T01:30:00.543Z,99749.78
2023-03-29T01:36:12.403Z,99747.67
2023-03-29T01:42:26.290Z,99738.89
2023-03-29T01:48:36.262Z,99740.48
2023-03-29T01:54:45.572Z,99738.78
2023-03-29T02:00:48.534Z,99742.59
2023-03-29T02:06:53.671Z,99745.69
2023-03-29T02:13:00.746Z,99748.45
2023-03-29T02:19:08.492Z,99746.11
2023-03-29T02:25:10.297Z,99742.45
2023-03-29T02:31:38.469Z,99744.23
2023-03-29T02:37:43.703Z,99739.94
2023-03-29T02:43:49.756Z,99746.45
2023-03-29T02:49:51.300Z,99744.82
2023-03-29T02:55:53.215Z,99747.84
2023-03-29T03:01:55.025Z,99748.91
2023-03-29T03:07:57.719Z,99741.67
2023-03-29T03:13:59.438Z,99739.23
2023-03-29T03:20:00.937Z,99745.56
2023-03-29T03:26:02.739Z,99748.74
2023-03-29T03:32:05.334Z,99756.69
2023-03-29T03:38:25.664Z,99754.39
2023-03-29T03:44:34.637Z,99753.75
2023-03-29T03:51:20.841Z,99751.30
2023-03-29T03:57:31.213Z,99755.96
2023-03-29T04:03:33.358Z,99760.91
2023-03-29T04:09:38.255Z,99763.66
2023-03-29T04:16:01.697Z,99764.67
2023-03-29T04:22:12.676Z,99759.55
2023-03-29T04:28:17.052Z,99765.26
2023-03-29T04:34:32.496Z,99760.98
2023-03-29T04:40:34.565Z,99761.66
2023-03-29T04:47:12.201Z,99761.41
2023-03-29T04:53:27.630Z,99761.29
2023-03-29T04:59:29.323Z,99760.28
2023-03-29T05:05:33.464Z,99755.45
2023-03-29T05:11:36.524Z,99744.83
2023-03-29T05:17:38.739Z,99744.14
2023-03-29T05:23:44.228Z,99739.69
2023-03-29T05:29:51.655Z,99744.23
2023-03-29T05:36:07.817Z,99749.85
2023-03-29T05:42:14.832Z,99749.57
2023-03-29T05:48:24.162Z,99757.52
2023-03-29T05:54:26.483Z,99750.70
2023-03-29T06:00:29.232Z,99751.59
2023-03-29T06:06:38.583Z,99751.75
2023-03-29T06:12:41.331Z,99754.17
2023-03-29T06:18:44.198Z,99751.73
2023-03-29T06:24:46.504Z,99748.46
2023-03-29T06:31:01.852Z,99754.61
2023-03-29T06:37:07.779Z,99759.84
2023-03-29T06:43:10.364Z,99762.16
2023-03-29T06:49:29.249Z,99764.59
2023-03-29T06:55:54.103Z,99770.81
2023-03-29T07:02:11.689Z,99768.84
2023-03-29T07:08:22.472Z,99773.26
2023-03-29T07:14:33.648Z,99775.46
2023-03-29T07:20:37.741Z,99773.35
2023-03-29T07:26:52.385Z,99775.26
2023-03-29T07:33:03.658Z,99770.30
2023-03-29T07:39:15.022Z,99768.98
2023-03-29T07:45:26.084Z,99764.39
2023-03-29T07:51:42.958Z,99765.02
2023-03-29T07:57:46.594Z,99762.26
2023-03-29T08:03:48.872Z,99762.52
2023-03-29T08:09:51.284Z,99759.75
2023-03-29T08:15:55.378Z,99752.30
2023-03-29T08:22:02.275Z,99740.83
2023-03-29T08:28:12.662Z,99735.92
2023-03-29T08:34:20.853Z,99733.04
2023-03-29T08:40:38.095Z,99742.66
2023-03-29T08:47:36.210Z,99735.58
2023-03-29T08:53:41.738Z,99724.27
2023-03-29T08:59:51.035Z,99722.52
2023-03-29T09:05:57.541Z,99721.23
2023-03-29T09:12:16.038Z,99716.38
2023-03-29T09:18:48.632Z,99708.04
2023-03-29T09:25:20.768Z,99703.61
2023-03-29T09:31:27.868Z,99695.86
2023-03-29T09:37:33.903Z,99693.73
2023-03-29T09:43:41.109Z,99696.98
2023-03-29T09:49:48.299Z,99685.54
2023-03-29T09:55:51.312Z,99682.52
2023-03-29T10:02:13.025Z,99680.02
2023-03-29T10:08:41.811Z,99671.90
2023-03-29T10:14:53.922Z,99661.80
2023-03-29T10:20:59.297Z,99660.41
2023-03-29T10:27:03.140Z,99658.05
2023-03-29T10:33:06.272Z,99651.75
2023-03-29T10:39:10.079Z,99653.19
2023-03-29T10:45:22.212Z,99650.55
2023-03-29T10:51:27.057Z,99631.58
2023-03-29T10:57:37.996Z,99634.88
2023-03-29T11:03:58.150Z,99617.64
2023-03-29T11:10:14.045Z,99610.65
2023-03-29T11:16:15.941Z,99607.27
2023-03-29T11:22:20.664Z,99602.08
2023-03-29T11:28:42.363Z,99599.66
2023-03-29T11:35:10.193Z,99591.67
2023-03-29T11:41:17.053Z,99586.04
2023-03-29T11:47:20.714Z,99582.34
2023-03-29T11:53:27.780Z,99570.69
2023-03-29T11:59:36.710Z,99563.20
2023-03-29T12:05:45.276Z,99565.83
2023-03-29T12:12:02.428Z,99557.71
2023-03-29T12:18:07.097Z,99553.66
2023-03-29T12:24:20.436Z,99541.62
2023-03-29T12:30:40.966Z,99534.43
2023-03-29T12:37:21.224Z,99528.24
2023-03-29T12:43:42.747Z,99521.67
2023-03-29T12:50:04.031Z,99515.81
2023-03-29T12:56:07.841Z,99508.21
2023-03-29T13:02:13.181Z,99505.20
2023-03-29T13:08:25.705Z,99495.77
2023-03-29T13:14:29.536Z,99496.20
2023-03-29T13:21:20.466Z,99484.48
2023-03-29T13:27:39.085Z,99489.40
2023-03-29T13:33:55.459Z,99474.64
2023-03-29T13:39:57.216Z,99467.91
2023-03-29T13:45:59.304Z,99458.88
2023-03-29T13:52:18.817Z,99464.11
2023-03-29T13:58:39.090Z,99451.11
2023-03-29T14:04:46.316Z,99442.98
2023-03-29T14:10:48.221Z,99439.61
2023-03-29T14:16:50.191Z,99432.37
2023-03-29T14:22:52.460Z,99432.48
2023-03-29T14:29:00.335Z,99426.86
2023-03-29T14:35:02.112Z,99427.20
2023-03-29T14:41:06.852Z,99425.17
2023-03-29T14:47:15.653Z,99427.05
2023-03-29T14:53:22.373Z,99421.58
2023-03-29T14:59:38.291Z,99417.05
2023-03-29T15:05:56.842Z,99408.73
2023-03-29T15:12:04.682Z,99403.58
2023-03-29T15:18:09.362Z,99400.42
2023-03-29T15:24:30.785Z,99405.40
2023-03-29T15:30:37.957Z,99395.30
2023-03-29T15:36:49.600Z,99391.39
2023-03-29T15:43:01.293Z,99384.90
2023-03-29T15:49:04.279Z,99382.37
2023-03-29T15:55:12.104Z,99373.32
2023-03-29T16:01:38.086Z,99365.76
2023-03-29T16:07:39.800Z,99369.11
2023-03-29T16:13:44.726Z,99370.20
2023-03-29T16:19:49.448Z,99363.98
2023-03-29T16:25:50.900Z,99358.42
2023-03-29T16:31:53.214Z,99365.48
2023-03-29T16:37:55.904Z,99363.34
2023-03-29T16:43:58.420Z,99362.70
2023-03-29T16:50:00.021Z,99361.51
2023-03-29T16:56:03.061Z,99357.63
2023-03-29T17:02:05.172Z,99354.29
2023-03-29T17:08:09.203Z,99353.98
2023-03-29T17:14:12.049Z,99353.71
2023-03-29T17:20:13.446Z,99347.88
2023-03-29T17:26:17.533Z,59609.55
2023-03-29T17:32:19.047Z,67522.84
2023-03-29T17:38:21.108Z,-1.00
2023-03-29T17:44:22.823Z,-1.00
2023-03-29T17:50:25.697Z,39018.07
2023-03-29T17:56:27.720Z,-1.00
2023-03-29T18:02:29.458Z,-1.00
2023-03-29T18:08:32.086Z,-1.00
2023-03-29T18:14:34.882Z,11065.71
2023-03-29T18:20:36.522Z,67526.63
2023-03-29T18:26:38.420Z,-1.00
2023-03-29T18:32:40.117Z,-1.00
2023-03-29T18:38:43.258Z,-1.00
2023-03-29T18:44:48.505Z,-1.00
2023-03-29T18:51:16.549Z,-1.00
2023-03-29T18:57:25.868Z,-1.00
2023-03-29T19:03:28.017Z,-1.00
2023-03-29T19:09:30.999Z,-1.00
2023-03-29T19:15:46.803Z,-1.00
2023-03-29T19:21:48.925Z,111379.34
2023-03-29T19:27:50.995Z,79509.84
2023-03-29T19:33:52.910Z,-1.00
2023-03-29T19:39:58.441Z,23824.43
2023-03-29T19:46:06.431Z,59630.86
2023-03-29T19:52:08.047Z,-1.00
2023-03-29T19:58:09.601Z,-1.00
2023-03-29T20:04:11.387Z,-1.00
2023-03-29T20:10:16.558Z,-1.00
2023-03-29T20:16:23.698Z,23824.43
2023-03-29T20:22:30.059Z,103336.48
2023-03-29T20:28:37.215Z,99392.83
2023-03-29T20:34:41.246Z,99392.01
2023-03-29T20:40:44.403Z,99383.98
2023-03-29T20:47:18.142Z,105363.23
2023-03-29T21:00:37.807Z,83446.98
2023-03-29T21:07:04.865Z,71475.28
2023-03-29T21:13:06.973Z,99355.48
2023-03-29T21:19:09.535Z,99349.10
2023-03-29T21:25:15.330Z,99342.69
2023-03-29T21:31:17.464Z,99333.00
2023-03-29T21:37:21.473Z,99331.48
2023-03-29T21:43:25.426Z,99331.48
2023-03-29T21:49:29.145Z,99330.19
2023-03-29T21:55:33.398Z,99331.65
2023-03-29T22:01:35.124Z,99332.84
2023-03-29T22:07:40.190Z,99333.31
2023-03-29T22:13:45.557Z,99330.61
2023-03-29T22:19:49.723Z,99327.39
2023-03-29T22:25:51.245Z,99329.34
2023-03-29T22:31:53.136Z,99332.98
2023-03-29T22:37:55.109Z,99323.59
2023-03-29T22:43:58.064Z,99320.02
2023-03-29T22:49:59.881Z,99319.17
2023-03-29T22:56:06.873Z,99318.60
2023-03-29T23:02:08.504Z,99311.35
2023-03-29T23:08:10.346Z,99305.05
2023-03-29T23:14:11.825Z,99297.88
2023-03-29T23:20:13.391Z,99296.09
2023-03-29T23:26:15.256Z,99294.45
2023-03-29T23:32:16.718Z,99285.23
2023-03-29T23:38:18.483Z,99276.48
2023-03-29T23:44:20.144Z,99273.54
2023-03-29T23:50:21.963Z,99262.84
2023-03-29T23:56:23.566Z,99253.36
